Time;durP1;ratioP1;P1;durP2;ratioP2;P2;SDS_P1;SDS_P2;PMS_P1;PMS_P2;Temp;Humidity;BMP_temperature;BMP_pressure;BME280_temperature;BME280_humidity;BME280_pressure;Samples;Min_cycle;Max_cycle;Signal;HPM_P1;HPM_P2
2023/02/11 05:30:38;;;;;;;26.38;16.95;;;5.60;76.70;;;;;;5771480;23;21066;-77
2023/02/11 05:33:06;;;;;;;22.77;16.60;;;5.60;76.60;;;;;;4935910;29;20020;-77
2023/02/11 05:35:32;;;;;;;22.27;16.10;;;5.50;76.60;;;;;;4934677;29;20044;-77
2023/02/11 05:37:57;;;;;;;18.88;15.18;;;5.40;76.50;;;;;;4936607;29;20036;-76
2023/02/11 05:40:23;;;;;;;22.77;15.75;;;5.30;76.70;;;;;;4938211;29;20509;-77
2023/02/11 05:42:48;;;;;;;23.98;15.95;;;5.40;77.00;;;;;;4937336;29;20028;-77
2023/02/11 05:45:14;;;;;;;22.83;15.95;;;5.30;77.00;;;;;;4936855;29;20071;-77
2023/02/11 05:47:40;;;;;;;22.17;15.80;;;5.40;77.20;;;;;;4937782;29;20023;-77
2023/02/11 05:50:13;;;;;;;21.52;16.58;;;5.40;76.90;;;;;;4936098;29;20035;-76
2023/02/11 05:52:39;;;;;;;21.77;16.42;;;5.30;76.80;;;;;;4937709;29;20115;-77
2023/02/11 05:55:05;;;;;;;23.30;15.25;;;5.30;76.90;;;;;;4937691;29;20036;-77
2023/02/11 05:57:30;;;;;;;26.58;17.73;;;5.30;76.90;;;;;;4920489;29;20028;-77
2023/02/11 05:59:56;;;;;;;23.00;15.68;;;5.40;76.80;;;;;;4933191;29;20047;-77
2023/02/11 06:02:22;;;;;;;21.90;16.05;;;5.40;76.60;;;;;;4935340;29;20046;-77
2023/02/11 06:04:47;;;;;;;24.52;16.30;;;5.30;76.30;;;;;;4946098;29;20115;-77
2023/02/11 06:07:16;;;;;;;28.83;17.05;;;5.30;76.70;;;;;;4946614;29;20090;-76
2023/02/11 06:09:42;;;;;;;30.98;19.98;;;5.30;76.80;;;;;;4955708;29;20034;-77
2023/02/11 06:12:07;;;;;;;28.15;19.38;;;5.30;76.70;;;;;;4941253;29;20036;-77
2023/02/11 06:14:33;;;;;;;28.63;17.33;;;5.40;76.60;;;;;;4936215;29;20060;-77
2023/02/11 06:16:59;;;;;;;27.30;17.48;;;5.30;76.40;;;;;;4936819;29;20039;-77
2023/02/11 06:19:25;;;;;;;28.83;19.10;;;5.30;76.00;;;;;;4942268;29;20030;-77
2023/02/11 06:21:51;;;;;;;27.08;18.92;;;5.20;75.80;;;;;;4957010;29;20479;-77
2023/02/11 06:24:22;;;;;;;31.67;18.90;;;5.30;75.80;;;;;;4955560;29;20058;-76
2023/02/11 06:26:47;;;;;;;30.65;18.15;;;5.30;75.70;;;;;;4941474;28;20044;-76
2023/02/11 06:29:13;;;;;;;28.20;18.10;;;5.30;75.50;;;;;;4937635;29;20027;-77
2023/02/11 06:31:39;;;;;;;58.60;30.80;;;5.20;75.10;;;;;;4938927;29;20047;-77
2023/02/11 06:34:06;;;;;;;37.15;21.52;;;5.20;75.20;;;;;;4937185;29;20066;-77
2023/02/11 06:36:32;;;;;;;28.40;19.30;;;5.20;75.10;;;;;;4946012;29;20030;-77
2023/02/11 06:38:58;;;;;;;31.13;17.88;;;5.20;74.90;;;;;;4958717;29;20483;-77
2023/02/11 06:41:26;;;;;;;43.05;21.88;;;5.10;75.00;;;;;;4945074;29;20118;-77
2023/02/11 06:43:52;;;;;;;42.97;21.80;;;5.10;74.90;;;;;;4940635;29;20111;-77
2023/02/11 06:46:18;;;;;;;41.58;24.92;;;5.10;75.10;;;;;;4938903;29;20036;-77
2023/02/11 06:48:44;;;;;;;48.95;26.13;;;4.90;75.20;;;;;;4938965;29;20495;-77
2023/02/11 06:51:12;;;;;;;38.45;24.17;;;5.00;75.40;;;;;;4939471;29;20444;-78
2023/02/11 06:53:39;;;;;;;40.35;25.70;;;4.90;75.40;;;;;;4938877;29;20027;-79
2023/02/11 06:56:15;;;;;;;44.90;25.75;;;5.00;75.40;;;;;;4940591;29;20036;-78
2023/02/11 06:58:54;;;;;;;;;;;;;;;;;;;;;
2023/02/11 07:01:21;;;;;;;29.33;20.20;;;5.00;75.10;;;;;;4940302;29;20024;-79
2023/02/11 07:03:47;;;;;;;47.53;26.45;;;5.00;74.90;;;;;;4952045;29;20036;-79
2023/02/11 07:06:18;;;;;;;33.15;23.15;;;5.10;74.80;;;;;;4939115;29;20028;-77
2023/02/11 07:08:44;;;;;;;41.00;23.38;;;4.90;74.70;;;;;;4938667;29;20079;-78
2023/02/11 07:11:16;;;;;;;39.83;23.77;;;4.90;74.80;;;;;;4947062;29;20031;-82
2023/02/11 07:13:42;;;;;;;51.67;26.65;;;5.00;74.80;;;;;;4959687;28;20518;-81
2023/02/11 07:16:12;;;;;;;44.13;24.25;;;5.10;74.50;;;;;;4942123;28;20035;-78
2023/02/11 07:18:38;;;;;;;48.13;25.33;;;5.10;74.20;;;;;;4943351;29;20039;-80
2023/02/11 07:21:24;;;;;;;42.97;22.40;;;5.20;74.00;;;;;;4948315;29;20027;-79
2023/02/11 07:23:50;;;;;;;41.22;22.15;;;5.20;74.00;;;;;;4946722;29;20138;-84
2023/02/11 07:26:20;;;;;;;42.28;23.70;;;5.10;74.10;;;;;;4940163;28;20091;-80
2023/02/11 07:28:45;;;;;;;46.28;23.48;;;5.10;74.20;;;;;;4942209;29;20787;-77
2023/02/11 07:31:17;;;;;;;44.83;25.85;;;5.00;74.10;;;;;;4946887;29;20047;-77
2023/02/11 07:33:44;;;;;;;47.50;25.77;;;5.00;74.10;;;;;;4949968;29;20059;-78
2023/02/11 07:36:12;;;;;;;43.83;25.48;;;5.00;74.10;;;;;;4943807;29;20032;-79
2023/02/11 07:38:38;;;;;;;48.60;27.20;;;5.10;74.10;;;;;;4948540;28;20020;-81
2023/02/11 07:41:06;;;;;;;64.13;33.03;;;5.20;74.20;;;;;;4947202;29;20106;-78
2023/02/11 07:43:33;;;;;;;48.92;25.55;;;5.10;74.20;;;;;;4943544;29;20027;-79
2023/02/11 07:46:01;;;;;;;46.38;24.88;;;5.20;74.20;;;;;;4944201;29;20027;-79
2023/02/11 07:48:27;;;;;;;35.30;21.92;;;5.20;74.20;;;;;;4945746;29;20031;-79
2023/02/11 07:50:52;;;;;;;49.42;26.33;;;5.20;74.00;;;;;;4948372;29;20030;-79
2023/02/11 07:53:18;;;;;;;36.90;22.38;;;5.20;74.10;;;;;;4937814;29;20070;-79
2023/02/11 07:55:44;;;;;;;41.53;22.92;;;5.20;74.10;;;;;;4933430;29;20039;-78
2023/02/11 07:58:09;;;;;;;39.63;23.08;;;5.10;74.10;;;;;;4933366;29;20034;-79
2023/02/11 08:00:35;;;;;;;43.55;25.20;;;5.10;74.50;;;;;;4931704;29;20039;-78
2023/02/11 08:03:01;;;;;;;50.38;24.98;;;5.10;74.50;;;;;;4931832;29;20036;-81
2023/02/11 08:05:27;;;;;;;41.05;21.35;;;5.20;74.40;;;;;;4936992;29;20563;-79
2023/02/11 08:07:53;;;;;;;44.42;24.50;;;5.30;74.20;;;;;;4939008;29;20060;-83
2023/02/11 08:10:20;;;;;;;37.08;21.55;;;5.40;74.00;;;;;;4940219;29;20610;-79
2023/02/11 08:12:46;;;;;;;37.65;22.33;;;5.40;74.20;;;;;;4958110;28;20035;-82
2023/02/11 08:15:11;;;;;;;34.30;20.40;;;5.50;74.20;;;;;;4942450;28;20035;-79
2023/02/11 08:17:37;;;;;;;36.70;21.25;;;5.60;74.00;;;;;;4929827;29;20123;-79
2023/02/11 08:20:04;;;;;;;31.15;20.00;;;5.70;73.80;;;;;;4930289;29;20023;-78
2023/02/11 08:22:31;;;;;;;43.25;22.88;;;5.70;74.00;;;;;;4935582;29;20036;-78
2023/02/11 08:24:57;;;;;;;42.45;24.10;;;5.80;73.70;;;;;;4934629;29;20099;-77
2023/02/11 08:27:25;;;;;;;39.33;21.55;;;5.90;73.70;;;;;;4936772;29;20570;-79
2023/02/11 08:29:54;;;;;;;42.25;21.80;;;6.00;73.70;;;;;;4937251;29;20118;-78
2023/02/11 08:32:20;;;;;;;37.08;23.50;;;6.00;73.80;;;;;;4936216;29;20169;-78
2023/02/11 08:34:49;;;;;;;51.88;26.13;;;6.20;73.80;;;;;;4937546;29;20093;-80
2023/02/11 08:37:14;;;;;;;44.92;23.60;;;6.30;73.50;;;;;;4932555;29;20036;-80
2023/02/11 08:39:40;;;;;;;45.75;23.05;;;6.30;73.30;;;;;;4935436;29;20368;-80
2023/02/11 08:42:06;;;;;;;40.08;23.02;;;6.40;72.90;;;;;;4936524;29;20024;-80
2023/02/11 08:44:31;;;;;;;42.08;25.25;;;6.40;73.00;;;;;;4934054;29;20574;-80
2023/02/11 08:46:57;;;;;;;33.20;22.55;;;6.60;72.80;;;;;;4927926;29;20032;-80
2023/02/11 08:49:22;;;;;;;50.60;25.23;;;6.70;72.60;;;;;;4935436;29;20035;-80
2023/02/11 08:51:48;;;;;;;41.85;22.73;;;6.80;72.40;;;;;;4936962;29;20035;-79
2023/02/11 08:54:15;;;;;;;32.17;20.88;;;7.00;72.00;;;;;;4929316;29;20032;-79
2023/02/11 08:56:41;;;;;;;37.30;21.10;;;7.10;71.90;;;;;;4930318;29;20032;-80
2023/02/11 08:59:08;;;;;;;36.50;22.35;;;7.20;71.90;;;;;;4930000;29;20043;-80
2023/02/11 09:01:34;;;;;;;37.08;21.40;;;7.30;71.60;;;;;;4936818;29;20067;-79
2023/02/11 09:04:00;;;;;;;37.22;20.70;;;7.40;71.60;;;;;;4934145;29;20059;-78
2023/02/11 09:06:26;;;;;;;33.03;19.90;;;7.40;71.60;;;;;;4925138;29;20138;-77
2023/02/11 09:08:54;;;;;;;33.90;19.27;;;7.50;71.70;;;;;;4931348;29;20027;-76
2023/02/11 09:11:26;;;;;;;39.83;21.52;;;7.60;71.60;;;;;;4939348;29;20024;-77
2023/02/11 09:13:51;;;;;;;33.30;20.27;;;7.70;71.60;;;;;;4937400;29;20038;-78
2023/02/11 09:16:20;;;;;;;41.60;21.52;;;7.80;71.70;;;;;;4935120;29;21237;-81
2023/02/11 09:18:47;;;;;;;33.90;20.17;;;7.90;71.30;;;;;;4937392;29;20540;-79
2023/02/11 09:21:14;;;;;;;35.13;20.27;;;8.20;71.00;;;;;;4935647;29;20028;-78
2023/02/11 09:23:42;;;;;;;37.85;22.05;;;8.30;70.70;;;;;;4924892;29;20056;-79
2023/02/11 09:26:12;;;;;;;32.45;19.75;;;8.60;70.70;;;;;;4928431;29;20031;-79
2023/02/11 09:28:38;;;;;;;28.65;20.15;;;9.10;69.70;;;;;;4926991;29;20016;-79
2023/02/11 09:31:09;;;;;;;28.80;20.48;;;9.70;68.60;;;;;;4929211;29;20046;-79
2023/02/11 09:33:36;;;;;;;31.83;18.92;;;10.30;67.40;;;;;;4921960;29;20128;-80
2023/02/11 09:36:03;;;;;;;31.15;22.67;;;10.90;66.00;;;;;;4937647;29;20117;-80
2023/02/11 09:38:29;;;;;;;31.15;20.58;;;11.50;64.10;;;;;;4938072;29;20020;-80
2023/02/11 09:40:55;;;;;;;29.85;19.85;;;11.90;64.00;;;;;;4935029;29;20036;-80
2023/02/11 09:43:31;;;;;;;30.83;22.40;;;12.10;62.80;;;;;;4938023;29;20034;-86
2023/02/11 09:45:58;;;;;;;33.55;22.25;;;12.30;62.20;;;;;;4935430;29;20040;-81
2023/02/11 09:48:31;;;;;;;36.15;25.88;;;12.40;62.80;;;;;;4937783;29;20020;-92
2023/02/11 09:51:00;;;;;;;31.40;23.83;;;12.40;62.60;;;;;;4934274;29;20035;-84
2023/02/11 09:53:30;;;;;;;37.00;25.83;;;12.60;62.20;;;;;;4935436;29;20055;-87
2023/02/11 09:56:01;;;;;;;34.78;24.42;;;13.00;61.20;;;;;;4934324;29;20292;-82
2023/02/11 09:58:30;;;;;;;30.98;23.30;;;13.40;60.00;;;;;;4937517;29;20082;-79
2023/02/11 10:01:01;;;;;;;31.35;24.05;;;13.60;59.30;;;;;;4937764;29;20083;-79
2023/02/11 10:03:57;;;;;;;27.85;22.20;;;13.70;58.40;;;;;;4937545;29;20396;-81
2023/02/11 10:06:26;;;;;;;27.80;22.50;;;13.70;59.00;;;;;;4940963;29;20609;-84
2023/02/11 10:08:52;;;;;;;26.80;21.50;;;13.50;58.80;;;;;;4940828;29;20084;-83
2023/02/11 10:11:30;;;;;;;27.42;21.17;;;13.40;59.20;;;;;;4949884;29;20043;-83
2023/02/11 10:14:11;;;;;;;28.92;21.35;;;13.20;59.90;;;;;;4951742;29;20158;-83
2023/02/11 10:16:53;;;;;;;29.30;19.90;;;12.80;60.40;;;;;;4941014;29;20035;-82
2023/02/11 10:19:18;;;;;;;29.50;21.75;;;12.50;61.40;;;;;;4940764;29;20031;-80
2023/02/11 10:21:51;;;;;;;30.42;22.33;;;12.10;62.00;;;;;;4940621;29;20038;-83
2023/02/11 10:24:18;;;;;;;31.30;20.60;;;11.70;63.20;;;;;;4941040;29;20028;-82
2023/02/11 10:26:44;;;;;;;27.20;19.90;;;11.20;64.30;;;;;;4940766;29;20099;-82
2023/02/11 10:29:39;;;;;;;27.23;17.75;;;10.90;65.40;;;;;;4934757;29;20024;-83
2023/02/11 10:32:35;;;;;;;29.25;19.27;;;10.60;66.40;;;;;;4920239;29;20058;-84
2023/02/11 10:35:14;;;;;;;26.10;18.90;;;10.30;67.70;;;;;;4938050;29;20055;-79
2023/02/11 10:37:40;;;;;;;26.38;17.90;;;10.10;68.70;;;;;;4940163;29;20028;-82
2023/02/11 10:40:16;;;;;;;26.13;17.13;;;10.00;69.50;;;;;;4940717;29;20046;-78
2023/02/11 10:42:46;;;;;;;29.65;18.73;;;9.90;70.50;;;;;;4940991;29;20028;-89
2023/02/11 10:45:37;;;;;;;31.70;19.30;;;9.90;70.70;;;;;;4924686;29;20135;-84
2023/02/11 10:48:05;;;;;;;27.40;17.58;;;9.90;71.00;;;;;;4921799;29;20051;-80
2023/02/11 10:50:33;;;;;;;35.92;22.13;;;9.90;71.50;;;;;;4920635;29;20052;-80
2023/02/11 10:53:25;;;;;;;34.05;20.70;;;9.80;72.20;;;;;;4937097;29;20028;-79
2023/02/11 10:55:53;;;;;;;26.77;17.50;;;9.70;72.70;;;;;;4936248;29;20078;-84
2023/02/11 10:58:27;;;;;;;36.47;22.98;;;9.80;73.20;;;;;;4939673;29;20386;-90
2023/02/11 11:00:57;;;;;;;28.63;19.33;;;9.80;73.10;;;;;;4940375;29;20039;-88
2023/02/11 11:03:25;;;;;;;36.70;20.10;;;9.90;73.50;;;;;;4939673;29;20124;-87
2023/02/11 11:05:55;;;;;;;29.02;19.65;;;10.00;73.30;;;;;;4934435;29;20031;-89
2023/02/11 11:08:21;;;;;;;28.10;18.92;;;9.90;73.70;;;;;;4921244;29;20087;-87
2023/02/11 11:11:17;;;;;;;29.77;19.90;;;9.90;73.60;;;;;;4932414;29;20039;-90
2023/02/11 11:13:52;;;;;;;26.60;15.90;;;9.90;73.90;;;;;;4947703;28;20057;-84
2023/02/11 11:16:25;;;;;;;28.73;18.25;;;10.00;74.30;;;;;;4954219;29;20090;-89
2023/02/11 11:19:12;;;;;;;29.45;18.38;;;10.00;74.20;;;;;;4929664;29;20152;-86
2023/02/11 11:21:44;;;;;;;28.83;18.45;;;10.10;74.20;;;;;;4938388;29;20036;-80
2023/02/11 11:24:41;;;;;;;28.38;18.25;;;10.00;74.40;;;;;;4940078;29;20039;-82
2023/02/11 11:27:17;;;;;;;27.42;18.65;;;10.20;74.60;;;;;;4938230;29;20107;-82
2023/02/11 11:29:55;;;;;;;32.85;18.70;;;10.30;74.80;;;;;;4938827;29;20122;-85
2023/02/11 11:32:34;;;;;;;29.73;17.13;;;10.30;74.70;;;;;;4939067;29;20075;-84
2023/02/11 11:35:04;;;;;;;26.80;17.73;;;10.30;74.70;;;;;;4935764;29;20032;-84
2023/02/11 11:37:33;;;;;;;24.27;15.25;;;10.30;74.50;;;;;;4939378;29;20027;-85
2023/02/11 11:40:01;;;;;;;21.38;13.65;;;10.40;74.90;;;;;;4937909;29;20538;-79
2023/02/11 11:42:32;;;;;;;26.88;15.98;;;10.40;74.30;;;;;;4935379;29;20047;-81
2023/02/11 11:45:02;;;;;;;20.95;14.73;;;10.40;74.00;;;;;;4921227;29;20032;-81
2023/02/11 11:47:50;;;;;;;19.65;14.20;;;10.40;73.30;;;;;;4920442;29;20366;-81
2023/02/11 11:50:22;;;;;;;24.23;14.40;;;10.40;72.30;;;;;;4925627;29;20515;-88
2023/02/11 11:53:00;;;;;;;19.05;12.70;;;10.50;72.80;;;;;;4935670;29;20030;-89
2023/02/11 11:55:48;;;;;;;23.70;15.13;;;10.60;73.10;;;;;;4939998;29;20423;-81
2023/02/11 11:58:19;;;;;;;21.75;13.85;;;10.70;73.40;;;;;;4937625;29;20440;-83
2023/02/11 12:01:39;;;;;;;19.55;12.30;;;10.80;73.00;;;;;;4940346;29;20019;-87
2023/02/11 12:04:10;;;;;;;15.55;10.85;;;10.90;72.00;;;;;;4896500;29;20851;-81
2023/02/11 12:06:59;;;;;;;15.75;11.68;;;10.90;71.10;;;;;;4880666;29;20656;-85
2023/02/11 12:10:03;;;;;;;18.05;11.40;;;10.90;70.60;;;;;;4904384;29;20032;-87
2023/02/11 12:12:40;;;;;;;16.52;10.23;;;11.00;70.70;;;;;;4917733;29;20032;-91
2023/02/11 12:15:44;;;;;;;18.10;10.48;;;11.10;70.00;;;;;;4936346;29;20515;-88
2023/02/11 12:18:16;;;;;;;18.80;12.57;;;11.20;70.60;;;;;;4937408;29;20052;-81
2023/02/11 12:21:03;;;;;;;19.58;11.32;;;11.20;69.70;;;;;;4938416;29;20515;-83
2023/02/11 12:23:37;;;;;;;19.08;12.80;;;11.10;69.70;;;;;;4935022;29;20083;-87
2023/02/11 12:26:19;;;;;;;14.73;10.57;;;11.10;69.70;;;;;;4919283;29;20126;-87
2023/02/11 12:29:18;;;;;;;22.88;13.85;;;11.20;68.90;;;;;;4919587;29;20036;-77
2023/02/11 12:32:11;;;;;;;20.30;12.30;;;11.30;69.10;;;;;;4917900;29;20072;-85
2023/02/11 12:34:43;;;;;;;18.23;11.00;;;11.30;68.20;;;;;;4932873;29;20525;-86
2023/02/11 12:37:23;;;;;;;18.08;11.55;;;11.40;68.90;;;;;;4941417;29;20031;-84
2023/02/11 12:39:53;;;;;;;17.75;11.30;;;11.60;68.60;;;;;;4943344;29;20032;-84
2023/02/11 12:45:29;;;;;;;19.15;12.43;;;11.70;67.00;;;;;;4942525;29;20423;-87
2023/02/11 12:47:57;;;;;;;20.23;12.60;;;11.80;67.50;;;;;;4942406;29;20043;-87
2023/02/11 12:50:44;;;;;;;17.55;12.00;;;11.90;67.50;;;;;;4943610;29;20023;-87
2023/02/11 12:53:24;;;;;;;16.98;10.93;;;11.90;66.40;;;;;;4944695;29;20020;-86
2023/02/11 12:55:59;;;;;;;17.77;10.32;;;12.10;66.30;;;;;;4943997;29;20028;-86
2023/02/11 12:58:29;;;;;;;15.80;10.77;;;12.20;66.10;;;;;;4939523;29;20067;-84
2023/02/11 13:01:03;;;;;;;15.88;9.90;;;12.30;65.70;;;;;;4942943;29;20050;-83
2023/02/11 13:03:50;;;;;;;12.48;8.13;;;12.50;64.90;;;;;;4936720;29;20027;-85
2023/02/11 13:06:21;;;;;;;17.92;9.38;;;12.50;63.80;;;;;;4932683;29;20028;-84
2023/02/11 13:08:52;;;;;;;11.90;8.75;;;12.50;63.20;;;;;;4925410;29;20119;-84
2023/02/11 13:11:23;;;;;;;12.40;8.20;;;12.40;63.70;;;;;;4946895;29;20094;-76
2023/02/11 13:14:11;;;;;;;10.75;8.02;;;12.50;64.40;;;;;;4957507;28;20034;-83
2023/02/11 13:16:42;;;;;;;14.02;8.05;;;12.70;63.70;;;;;;4949483;28;20020;-85
2023/02/11 13:19:22;;;;;;;14.88;8.93;;;12.50;62.40;;;;;;4919171;29;20547;-84
2023/02/11 13:21:55;;;;;;;;;;;12.50;63.00;;;;;;4926808;29;20107;-84
2023/02/11 13:24:35;;;;;;;13.85;8.60;;;12.50;62.70;;;;;;4937044;29;20001;-84
2023/02/11 13:27:19;;;;;;;13.25;8.68;;;12.30;62.50;;;;;;4937867;29;20074;-84
2023/02/11 13:30:13;;;;;;;11.60;7.82;;;12.20;63.00;;;;;;4937214;29;20503;-84
2023/02/11 13:33:02;;;;;;;14.05;8.60;;;12.20;63.90;;;;;;4937462;29;20052;-84
2023/02/11 13:35:47;;;;;;;14.82;8.93;;;12.30;63.40;;;;;;4933212;29;20068;-85
2023/02/11 13:38:16;;;;;;;14.32;8.55;;;12.20;63.40;;;;;;4919176;29;20519;-85
2023/02/11 13:40:43;;;;;;;11.95;8.15;;;12.30;63.90;;;;;;4923246;29;20032;-84
2023/02/11 13:43:24;;;;;;;15.32;9.50;;;12.20;62.70;;;;;;4941933;29;20036;-84
2023/02/11 13:45:51;;;;;;;14.15;8.52;;;12.40;63.20;;;;;;4931103;29;20433;-84
2023/02/11 13:48:29;;;;;;;10.93;8.07;;;12.40;62.20;;;;;;4922815;29;20040;-84
2023/02/11 13:50:59;;;;;;;12.77;7.78;;;12.30;63.20;;;;;;4923234;29;20511;-84
2023/02/11 13:53:26;;;;;;;14.48;8.65;;;12.40;63.80;;;;;;4941278;29;20020;-84
2023/02/11 13:56:06;;;;;;;11.77;7.82;;;12.50;63.40;;;;;;4939828;29;20043;-84
2023/02/11 13:58:36;;;;;;;13.80;8.10;;;12.50;63.10;;;;;;4940954;29;20046;-84
2023/02/11 14:01:01;;;;;;;10.23;7.67;;;12.50;62.70;;;;;;4938010;29;20032;-83
2023/02/11 14:09:13;;;;;;;15.10;8.38;;;12.20;63.40;;;;;;4925742;29;20035;-83
2023/02/11 14:11:45;;;;;;;12.95;8.07;;;12.30;63.30;;;;;;4952027;29;20495;-83
2023/02/11 14:14:30;;;;;;;13.40;8.05;;;12.30;63.40;;;;;;4939142;29;20028;-83
2023/02/11 14:16:58;;;;;;;10.95;8.52;;;12.20;63.10;;;;;;4939846;29;20031;-84
2023/02/11 14:19:38;;;;;;;12.57;8.15;;;12.20;63.20;;;;;;4936744;29;20032;-84
2023/02/11 14:22:39;;;;;;;12.63;8.27;;;12.10;64.00;;;;;;4931616;29;20075;-83
2023/02/11 14:25:24;;;;;;;14.93;9.15;;;12.00;63.60;;;;;;4941178;29;20075;-83
2023/02/11 14:27:56;;;;;;;13.93;8.57;;;12.00;63.60;;;;;;4955692;29;20031;-83
2023/02/11 14:30:38;;;;;;;11.70;8.13;;;12.10;64.00;;;;;;4940904;29;20039;-82
2023/02/11 14:33:03;;;;;;;11.48;7.85;;;12.20;63.60;;;;;;4938530;29;20036;-83
2023/02/11 14:35:48;;;;;;;9.82;6.05;;;12.10;63.60;;;;;;4941036;29;20032;-83
2023/02/11 14:38:50;;;;;;;11.15;7.43;;;12.20;63.50;;;;;;4941041;29;20031;-83
2023/02/11 14:41:25;;;;;;;11.23;6.63;;;12.20;63.50;;;;;;4939229;29;20032;-84
2023/02/11 14:43:58;;;;;;;10.52;7.18;;;12.20;63.10;;;;;;4939788;29;20066;-83
2023/02/11 14:46:26;;;;;;;10.05;6.60;;;12.20;62.80;;;;;;4940533;29;20043;-83
2023/02/11 14:48:56;;;;;;;13.00;7.28;;;12.30;62.70;;;;;;4939323;29;20060;-83
2023/02/11 14:51:26;;;;;;;10.05;6.93;;;12.30;62.90;;;;;;4939340;29;20035;-83
2023/02/11 14:53:59;;;;;;;7.80;5.55;;;12.30;63.00;;;;;;4938385;29;20043;-84
2023/02/11 14:56:29;;;;;;;9.85;6.32;;;12.20;62.90;;;;;;4939429;29;20024;-83
2023/02/11 14:58:57;;;;;;;11.40;5.38;;;12.30;63.40;;;;;;4938826;29;20039;-83
2023/02/11 15:01:34;;;;;;;11.57;6.88;;;12.30;62.80;;;;;;4940660;29;20408;-83
2023/02/11 15:04:02;;;;;;;9.07;6.25;;;12.30;63.10;;;;;;4938553;29;20031;-83
2023/02/11 15:06:30;;;;;;;10.98;7.20;;;12.20;62.90;;;;;;4920860;29;20028;-82
2023/02/11 15:08:59;;;;;;;10.68;6.95;;;12.20;62.90;;;;;;4920327;29;20502;-82
2023/02/11 15:11:27;;;;;;;10.45;6.75;;;12.20;63.40;;;;;;4941553;29;20034;-83
2023/02/11 15:13:56;;;;;;;11.90;6.43;;;12.20;64.00;;;;;;4950290;28;20139;-82
2023/02/11 15:16:24;;;;;;;8.10;5.38;;;12.20;64.10;;;;;;4936113;29;20051;-83
2023/02/11 15:18:54;;;;;;;10.90;5.72;;;12.30;63.90;;;;;;4921280;29;20036;-82
2023/02/11 15:21:25;;;;;;;12.95;6.72;;;12.30;63.80;;;;;;4925163;29;20028;-83
2023/02/11 15:24:19;;;;;;;10.25;6.35;;;12.30;63.70;;;;;;4939551;29;20047;-82
2023/02/11 15:26:54;;;;;;;10.48;6.53;;;12.30;63.50;;;;;;4939102;29;20032;-82
2023/02/11 15:29:24;;;;;;;11.18;6.88;;;12.30;63.30;;;;;;4925906;29;20032;-83
2023/02/11 15:32:04;;;;;;;11.43;6.05;;;12.30;63.20;;;;;;4921176;29;20044;-83
2023/02/11 15:34:30;;;;;;;8.75;5.90;;;12.30;63.00;;;;;;4921059;29;20036;-83
2023/02/11 15:36:56;;;;;;;9.68;6.18;;;12.30;63.30;;;;;;4938189;29;20031;-82
2023/02/11 15:39:41;;;;;;;12.15;6.32;;;12.30;63.30;;;;;;4939980;29;20055;-82
2023/02/11 15:42:24;;;;;;;10.95;6.05;;;12.20;63.30;;;;;;4933060;29;20065;-83
2023/02/11 15:45:27;;;;;;;11.52;6.78;;;12.20;63.00;;;;;;4918947;29;20396;-81
2023/02/11 15:48:10;;;;;;;8.55;6.40;;;12.20;63.40;;;;;;4892245;29;20036;-84
2023/02/11 15:50:39;;;;;;;7.63;5.45;;;12.20;63.30;;;;;;4931160;29;20028;-81
2023/02/11 15:53:23;;;;;;;10.35;6.22;;;12.20;62.80;;;;;;4935024;29;20121;-83
2023/02/11 15:56:16;;;;;;;9.85;6.78;;;12.00;63.50;;;;;;4927535;29;20051;-81
2023/02/11 15:58:44;;;;;;;9.15;6.60;;;11.90;63.70;;;;;;4920258;29;20048;-81
2023/02/11 16:01:11;;;;;;;9.15;6.45;;;12.00;64.30;;;;;;4928735;29;20028;-78
2023/02/11 16:03:38;;;;;;;13.95;7.53;;;12.00;64.30;;;;;;4938998;29;20047;-78
2023/02/11 16:06:23;;;;;;;10.85;7.68;;;12.00;64.40;;;;;;4936704;29;20031;-80
2023/02/11 16:09:15;;;;;;;9.88;7.65;;;12.00;64.80;;;;;;4931288;29;20487;-79
2023/02/11 16:11:47;;;;;;;12.20;7.55;;;12.00;64.30;;;;;;4944994;29;20051;-78
2023/02/11 16:14:28;;;;;;;10.88;6.45;;;12.00;64.80;;;;;;4937827;29;20099;-80
2023/02/11 16:17:08;;;;;;;10.20;6.93;;;12.00;64.60;;;;;;4933134;29;20036;-77
2023/02/11 16:19:34;;;;;;;;;;;12.00;64.80;;;;;;4919064;29;20043;-76
2023/02/11 16:22:09;;;;;;;8.45;5.43;;;12.00;64.70;;;;;;4938366;29;19911;-81
2023/02/11 16:24:36;;;;;;;8.07;6.03;;;11.90;64.70;;;;;;4937062;29;20035;-80
2023/02/11 16:27:05;;;;;;;10.55;6.60;;;11.90;64.80;;;;;;4937397;29;20029;-77
2023/02/11 16:29:35;;;;;;;8.65;5.70;;;11.90;65.00;;;;;;4920018;29;20119;-77
2023/02/11 16:32:19;;;;;;;10.18;6.13;;;11.90;64.90;;;;;;4919459;29;20055;-77
2023/02/11 16:34:45;;;;;;;10.45;5.70;;;11.90;65.00;;;;;;4936868;29;20094;-75
2023/02/11 16:37:11;;;;;;;10.18;6.20;;;11.80;65.30;;;;;;4938918;29;20023;-76
2023/02/11 16:39:36;;;;;;;8.65;6.28;;;11.80;65.40;;;;;;4938764;29;20027;-79
2023/02/11 16:42:04;;;;;;;9.90;6.63;;;11.80;65.70;;;;;;4937902;29;20028;-79
2023/02/11 16:44:29;;;;;;;10.40;5.78;;;11.70;66.00;;;;;;4938700;29;20527;-79
2023/02/11 16:46:58;;;;;;;8.30;5.70;;;11.60;65.80;;;;;;4938289;29;20215;-80
2023/02/11 16:49:42;;;;;;;9.70;5.93;;;11.60;66.20;;;;;;4937201;29;20055;-80
2023/02/11 16:52:13;;;;;;;7.85;5.05;;;11.60;66.40;;;;;;4918439;29;20024;-77
2023/02/11 16:54:39;;;;;;;8.07;5.90;;;11.50;66.10;;;;;;4922754;29;20042;-77
2023/02/11 16:57:24;;;;;;;9.45;6.18;;;11.50;66.40;;;;;;4938693;29;20027;-77
2023/02/11 16:59:50;;;;;;;7.97;6.28;;;11.40;66.60;;;;;;4933208;29;20080;-74
2023/02/11 17:02:30;;;;;;;8.15;5.63;;;11.30;67.20;;;;;;4934650;29;20031;-75
2023/02/11 17:04:59;;;;;;;11.52;7.97;;;11.30;67.60;;;;;;4927672;29;20036;-75
2023/02/11 17:07:25;;;;;;;7.83;5.57;;;11.20;68.20;;;;;;4927648;29;20098;-75
2023/02/11 17:09:51;;;;;;;9.85;6.25;;;11.20;68.60;;;;;;4937633;29;21203;-74
2023/02/11 17:12:17;;;;;;;12.20;7.28;;;11.20;69.00;;;;;;4955921;29;20028;-77
2023/02/11 17:14:43;;;;;;;9.55;5.90;;;11.00;69.40;;;;;;4956855;28;20051;-74
2023/02/11 17:17:09;;;;;;;10.38;6.63;;;11.00;69.40;;;;;;4933737;28;20047;-74
2023/02/11 17:19:35;;;;;;;11.30;6.95;;;11.00;69.70;;;;;;4930949;29;20106;-75
2023/02/11 17:22:01;;;;;;;8.60;6.03;;;10.90;69.90;;;;;;4936405;29;20028;-74
2023/02/11 17:24:27;;;;;;;8.73;6.35;;;10.90;70.10;;;;;;4937373;29;20491;-75
2023/02/11 17:26:53;;;;;;;9.82;6.75;;;10.80;70.30;;;;;;4936954;29;20523;-75
2023/02/11 17:29:21;;;;;;;8.60;6.50;;;10.70;70.50;;;;;;4936908;29;20020;-74
2023/02/11 17:31:47;;;;;;;8.65;6.25;;;10.70;70.60;;;;;;4936168;29;20054;-75
2023/02/11 17:34:13;;;;;;;11.77;7.40;;;10.70;70.80;;;;;;4935634;29;20060;-73
2023/02/11 17:36:40;;;;;;;8.63;6.15;;;10.70;71.00;;;;;;4937443;29;20027;-72
2023/02/11 17:39:06;;;;;;;10.23;6.95;;;10.60;71.00;;;;;;4936784;29;20031;-74
2023/02/11 17:41:32;;;;;;;10.88;7.63;;;10.60;71.10;;;;;;4933050;29;20070;-75
2023/02/11 17:43:59;;;;;;;15.18;6.65;;;10.60;71.10;;;;;;4937101;29;20499;-76
2023/02/11 17:46:24;;;;;;;8.75;6.00;;;10.50;71.30;;;;;;4936550;29;20522;-77
2023/02/11 17:48:52;;;;;;;11.13;7.70;;;10.50;71.60;;;;;;4937014;29;20024;-76
2023/02/11 17:51:27;;;;;;;9.82;6.72;;;10.40;71.60;;;;;;4929970;29;20020;-75
2023/02/11 17:53:53;;;;;;;7.50;5.10;;;10.30;71.70;;;;;;4937463;29;20023;-75
2023/02/11 17:56:19;;;;;;;7.93;5.45;;;10.30;71.90;;;;;;4933829;29;20031;-74
2023/02/11 17:58:45;;;;;;;8.95;6.18;;;10.20;72.20;;;;;;4933778;29;20500;-74
2023/02/11 18:01:11;;;;;;;10.23;5.50;;;10.20;72.30;;;;;;4937148;29;20087;-75
2023/02/11 18:03:37;;;;;;;9.10;5.95;;;10.20;72.50;;;;;;4931127;29;20495;-74
2023/02/11 18:06:04;;;;;;;13.20;6.07;;;10.10;72.40;;;;;;4931046;29;20066;-74
2023/02/11 18:08:31;;;;;;;13.57;7.28;;;10.00;72.60;;;;;;4935755;29;20064;-79
2023/02/11 18:11:09;;;;;;;8.95;5.55;;;10.00;72.80;;;;;;4944315;29;20422;-81
2023/02/11 18:13:34;;;;;;;11.93;6.70;;;9.90;72.90;;;;;;4928954;28;20106;-79
2023/02/11 18:16:16;;;;;;;11.73;7.38;;;9.90;72.80;;;;;;4925829;29;20099;-80
2023/02/11 18:18:42;;;;;;;9.25;6.38;;;9.90;72.90;;;;;;4929897;29;20059;-77
2023/02/11 18:21:11;;;;;;;8.80;6.70;;;9.90;72.70;;;;;;4934691;29;20626;-75
2023/02/11 18:23:37;;;;;;;9.02;5.70;;;9.80;72.80;;;;;;4931879;29;20027;-78
2023/02/11 18:26:06;;;;;;;10.60;7.38;;;9.80;72.90;;;;;;4929958;29;20086;-80
2023/02/11 18:28:32;;;;;;;11.20;6.43;;;9.80;73.00;;;;;;4939353;29;20042;-78
2023/02/11 18:30:59;;;;;;;9.95;6.68;;;9.80;73.00;;;;;;4941136;29;20280;-81
2023/02/11 18:33:25;;;;;;;11.13;7.13;;;9.80;72.90;;;;;;4939193;29;20438;-83
2023/02/11 18:35:51;;;;;;;11.02;6.25;;;9.70;73.00;;;;;;4932652;29;20035;-78
2023/02/11 18:38:17;;;;;;;9.15;5.97;;;9.60;73.30;;;;;;4939837;29;20067;-81
2023/02/11 18:40:46;;;;;;;10.52;7.20;;;9.60;73.50;;;;;;4934209;29;20562;-77